Time;durP1;ratioP1;P1;durP2;ratioP2;P2;SDS_P1;SDS_P2;PMS_P1;PMS_P2;Temp;Humidity;BMP_temperature;BMP_pressure;BME280_temperature;BME280_humidity;BME280_pressure;Samples;Min_cycle;Max_cycle;Signal;HPM_P1;HPM_P2
2022/11/22 00:02:22;;;;;;;24.02;12.75;;;4.30;99.90;;;;;;5007569;28;20136;-78
2022/11/22 00:04:47;;;;;;;21.52;11.85;;;4.30;99.90;;;;;;5024072;28;20041;-78
2022/11/22 00:07:13;;;;;;;26.20;13.65;;;4.30;99.90;;;;;;5017091;28;20049;-78
2022/11/22 00:09:39;;;;;;;24.35;12.95;;;4.30;99.90;;;;;;5016954;28;20456;-78
2022/11/22 00:12:04;;;;;;;25.33;12.20;;;4.30;99.90;;;;;;5015821;28;20127;-78
2022/11/22 00:14:30;;;;;;;23.58;11.75;;;4.80;99.90;;;;;;5016324;28;20127;-78
2022/11/22 00:16:55;;;;;;;24.70;12.23;;;4.30;99.90;;;;;;5015814;28;20660;-78
2022/11/22 00:19:21;;;;;;;23.92;12.48;;;4.30;99.90;;;;;;5016557;28;20048;-78
2022/11/22 00:21:46;;;;;;;25.50;13.18;;;4.40;99.90;;;;;;5032648;28;20029;-78
2022/11/22 00:24:12;;;;;;;20.95;11.82;;;4.40;99.90;;;;;;5010311;28;20046;-78
2022/11/22 00:26:38;;;;;;;23.70;12.02;;;4.40;99.90;;;;;;5025983;28;20072;-78
2022/11/22 00:29:04;;;;;;;25.58;13.00;;;4.40;99.90;;;;;;5026733;28;20045;-78
2022/11/22 00:31:32;;;;;;;23.33;12.95;;;4.40;99.90;;;;;;5037187;28;20072;-78
2022/11/22 00:33:58;;;;;;;25.58;12.95;;;4.40;99.90;;;;;;5022806;28;20465;-78
2022/11/22 00:36:23;;;;;;;22.83;12.45;;;4.40;99.90;;;;;;5015016;28;20413;-78
2022/11/22 00:38:49;;;;;;;25.38;12.15;;;4.40;99.90;;;;;;5016566;28;20034;-78
2022/11/22 00:41:15;;;;;;;22.75;11.75;;;4.40;99.90;;;;;;5012271;28;20073;-78
2022/11/22 00:43:40;;;;;;;24.52;12.38;;;4.30;99.90;;;;;;5021379;28;20041;-78
2022/11/22 00:46:06;;;;;;;24.23;12.70;;;4.30;99.90;;;;;;5003319;28;20520;-78
2022/11/22 00:48:32;;;;;;;25.02;12.05;;;4.40;99.90;;;;;;5016115;28;20040;-78
2022/11/22 00:50:58;;;;;;;23.63;12.35;;;4.40;99.90;;;;;;5012954;28;20037;-78
2022/11/22 00:53:24;;;;;;;23.42;11.75;;;4.40;99.90;;;;;;5023889;28;20041;-78
2022/11/22 00:55:49;;;;;;;24.92;12.75;;;4.40;99.90;;;;;;5030084;28;20033;-77
2022/11/22 00:58:15;;;;;;;24.63;12.55;;;4.40;99.90;;;;;;5014070;28;20068;-78
2022/11/22 01:00:41;;;;;;;25.45;12.95;;;4.40;99.90;;;;;;5008646;28;20063;-77
2022/11/22 01:03:10;;;;;;;27.40;12.68;;;4.40;99.90;;;;;;5013799;28;20037;-77
2022/11/22 01:05:35;;;;;;;24.73;12.02;;;4.40;99.90;;;;;;5009746;28;20140;-77
2022/11/22 01:08:01;;;;;;;23.83;12.15;;;4.40;99.90;;;;;;5021927;28;20557;-76
2022/11/22 01:10:26;;;;;;;24.25;13.00;;;4.40;99.90;;;;;;5023132;28;20523;-77
2022/11/22 01:12:52;;;;;;;25.90;12.90;;;4.40;99.90;;;;;;5020329;28;20042;-77
2022/11/22 01:15:18;;;;;;;22.30;12.65;;;4.40;99.90;;;;;;4995282;28;20041;-77
2022/11/22 01:17:43;;;;;;;23.65;12.93;;;4.40;99.90;;;;;;5003474;28;20099;-76
2022/11/22 01:20:09;;;;;;;24.45;12.65;;;4.40;99.90;;;;;;5024353;28;20048;-76
2022/11/22 01:22:34;;;;;;;26.73;13.40;;;4.40;99.90;;;;;;5023154;28;20398;-77
2022/11/22 01:25:00;;;;;;;22.17;12.35;;;4.40;99.90;;;;;;5010099;28;20494;-77
2022/11/22 01:27:25;;;;;;;24.08;12.95;;;4.40;99.90;;;;;;5014477;28;20080;-77
2022/11/22 01:29:51;;;;;;;24.63;12.68;;;4.40;99.90;;;;;;5017334;28;20120;-77
2022/11/22 01:32:16;;;;;;;24.95;12.60;;;4.40;99.90;;;;;;5018784;28;20489;-77
2022/11/22 01:34:42;;;;;;;24.20;12.18;;;4.40;99.90;;;;;;5010466;28;20136;-77
2022/11/22 01:37:07;;;;;;;23.65;12.40;;;4.40;99.90;;;;;;5015908;28;20140;-77
2022/11/22 01:39:33;;;;;;;22.70;12.77;;;4.40;99.90;;;;;;5030050;28;20400;-77
2022/11/22 01:41:59;;;;;;;26.80;12.85;;;4.40;99.90;;;;;;5014156;28;20041;-77
2022/11/22 01:44:31;;;;;;;21.23;12.05;;;4.40;99.90;;;;;;5014105;28;20039;-77
2022/11/22 01:47:08;;;;;;;23.33;11.95;;;4.50;99.90;;;;;;5021831;28;20047;-77
2022/11/22 01:49:56;;;;;;;25.65;12.63;;;4.50;99.90;;;;;;5016308;28;20045;-77
2022/11/22 01:52:26;;;;;;;22.88;12.65;;;4.50;99.90;;;;;;5018433;28;20060;-77
2022/11/22 01:54:57;;;;;;;18.55;11.02;;;4.50;99.90;;;;;;5020007;28;20060;-77
2022/11/22 01:57:26;;;;;;;20.48;12.05;;;4.50;99.90;;;;;;5013636;28;20042;-76
2022/11/22 02:00:11;;;;;;;22.98;12.23;;;4.50;99.90;;;;;;5013355;28;20052;-77
2022/11/22 02:02:37;;;;;;;27.27;12.60;;;4.50;99.90;;;;;;5012519;28;20048;-77
2022/11/22 02:05:09;;;;;;;23.38;12.07;;;4.50;99.90;;;;;;5029661;28;20045;-77
2022/11/22 02:07:49;;;;;;;25.70;12.80;;;4.50;99.90;;;;;;5029227;28;20442;-77
2022/11/22 02:10:17;;;;;;;21.38;10.82;;;4.50;99.90;;;;;;5015360;28;20067;-77
2022/11/22 02:12:44;;;;;;;23.48;12.35;;;4.50;99.90;;;;;;5013937;28;20041;-77
2022/11/22 02:15:10;;;;;;;23.20;12.10;;;4.50;99.90;;;;;;5013341;28;20049;-77
2022/11/22 02:17:36;;;;;;;20.65;12.07;;;4.50;99.90;;;;;;5023965;28;20522;-77
2022/11/22 02:20:01;;;;;;;20.35;11.13;;;4.60;99.90;;;;;;5012637;28;20142;-77
2022/11/22 02:22:48;;;;;;;22.10;11.32;;;4.60;99.90;;;;;;5013547;28;20398;-76
2022/11/22 02:25:31;;;;;;;24.92;11.80;;;4.60;99.90;;;;;;4993205;28;20072;-77
2022/11/22 02:27:57;;;;;;;27.48;12.68;;;4.60;99.90;;;;;;5006899;28;20048;-77
2022/11/22 02:30:23;;;;;;;21.35;12.15;;;4.60;99.90;;;;;;5012803;28;20045;-77
2022/11/22 02:32:48;;;;;;;22.70;11.45;;;4.60;99.90;;;;;;5005650;28;20044;-77
2022/11/22 02:35:26;;;;;;;20.40;11.55;;;4.60;99.90;;;;;;5013630;28;20127;-77
2022/11/22 02:38:09;;;;;;;22.85;12.05;;;4.60;99.90;;;;;;4997385;28;20084;-77
2022/11/22 02:40:45;;;;;;;18.50;11.25;;;4.60;99.90;;;;;;5014072;28;20045;-78
2022/11/22 02:43:15;;;;;;;20.90;10.88;;;4.60;99.90;;;;;;5030704;28;20046;-78
2022/11/22 02:45:41;;;;;;;19.55;11.15;;;4.60;99.90;;;;;;5018028;28;20044;-79
2022/11/22 02:48:12;;;;;;;22.55;11.77;;;4.70;99.90;;;;;;5020369;28;20115;-78
2022/11/22 02:50:38;;;;;;;21.40;11.77;;;4.70;99.90;;;;;;4997188;28;20049;-78
2022/11/22 02:53:04;;;;;;;23.95;12.43;;;4.60;99.90;;;;;;4995301;28;20096;-78
2022/11/22 02:55:30;;;;;;;22.98;11.77;;;4.70;99.90;;;;;;5027837;28;20048;-78
2022/11/22 02:57:55;;;;;;;20.83;11.60;;;4.70;99.90;;;;;;4993750;28;20033;-78
2022/11/22 03:00:21;;;;;;;24.88;12.50;;;4.70;99.90;;;;;;5013466;28;20119;-78
2022/11/22 03:02:47;;;;;;;22.52;12.15;;;4.70;99.90;;;;;;4995542;28;20056;-78
2022/11/22 03:05:13;;;;;;;22.98;11.65;;;4.70;99.90;;;;;;5007030;28;20121;-78
2022/11/22 03:07:38;;;;;;;21.00;11.32;;;4.70;99.90;;;;;;4995500;28;20116;-78
2022/11/22 03:10:04;;;;;;;22.13;11.38;;;4.70;99.90;;;;;;5012952;28;20317;-77
2022/11/22 03:12:30;;;;;;;20.50;11.60;;;4.70;99.90;;;;;;4996884;28;20045;-77
2022/11/22 03:14:55;;;;;;;20.77;11.40;;;4.80;99.90;;;;;;5032003;28;20060;-77
2022/11/22 03:17:21;;;;;;;21.98;11.65;;;4.70;99.90;;;;;;5006560;28;20050;-78
2022/11/22 03:19:47;;;;;;;21.80;11.07;;;4.70;99.90;;;;;;5016180;28;20042;-77
2022/11/22 03:22:12;;;;;;;23.17;10.77;;;4.80;99.90;;;;;;5021085;28;20037;-77
2022/11/22 03:24:38;;;;;;;17.98;10.75;;;4.80;99.90;;;;;;5018862;28;20033;-77
2022/11/22 03:27:04;;;;;;;23.40;11.57;;;4.80;99.90;;;;;;5009134;28;20486;-77
2022/11/22 03:29:29;;;;;;;19.73;11.15;;;4.80;99.90;;;;;;5010648;28;20067;-77
2022/11/22 03:31:55;;;;;;;18.08;10.48;;;4.90;99.90;;;;;;5024998;28;20630;-77
2022/11/22 03:34:20;;;;;;;19.77;10.32;;;4.90;99.90;;;;;;5009366;28;20390;-77
2022/11/22 03:36:46;;;;;;;18.58;10.15;;;4.80;99.90;;;;;;5012611;28;20042;-77
2022/11/22 03:39:11;;;;;;;19.52;10.02;;;4.80;99.90;;;;;;4996065;28;20394;-77
2022/11/22 03:41:37;;;;;;;22.70;10.43;;;4.90;99.90;;;;;;4996591;28;20061;-77
2022/11/22 03:44:03;;;;;;;18.08;10.27;;;4.90;99.90;;;;;;5012744;28;20037;-77
2022/11/22 03:46:28;;;;;;;19.92;10.75;;;4.90;99.90;;;;;;5013173;28;20493;-77
2022/11/22 03:48:54;;;;;;;23.98;10.45;;;4.90;99.90;;;;;;5016314;28;20037;-77
2022/11/22 03:51:19;;;;;;;21.42;10.65;;;5.00;99.90;;;;;;5015093;28;20129;-77
2022/11/22 03:53:45;;;;;;;19.85;10.75;;;5.00;99.90;;;;;;5012324;28;20247;-77
2022/11/22 03:56:10;;;;;;;18.15;10.32;;;5.00;99.90;;;;;;5012294;28;20045;-78
2022/11/22 03:58:36;;;;;;;19.55;10.48;;;5.00;99.90;;;;;;5011634;28;20052;-78
2022/11/22 04:01:02;;;;;;;18.05;10.45;;;5.00;99.90;;;;;;4995388;28;20038;-78
2022/11/22 04:03:28;;;;;;;18.17;10.85;;;5.00;99.90;;;;;;5015013;28;20393;-78
2022/11/22 04:05:53;;;;;;;17.70;9.70;;;5.00;99.90;;;;;;5015961;28;20068;-78
2022/11/22 04:08:19;;;;;;;19.58;10.80;;;5.00;99.90;;;;;;5015863;28;20037;-78
2022/11/22 04:10:46;;;;;;;17.42;10.35;;;5.00;99.90;;;;;;5015865;28;20119;-78
2022/11/22 04:13:12;;;;;;;20.02;11.48;;;5.00;99.90;;;;;;5025178;28;20087;-78
2022/11/22 04:15:37;;;;;;;22.42;11.55;;;5.10;99.90;;;;;;5029818;28;20446;-79
2022/11/22 04:18:03;;;;;;;19.45;10.80;;;5.10;99.90;;;;;;5010736;28;20529;-78
2022/11/22 04:23:16;;;;;;;23.92;11.85;;;5.10;99.90;;;;;;5015416;28;20056;-77
2022/11/22 04:25:45;;;;;;;18.90;10.93;;;5.10;99.90;;;;;;5015684;28;20045;-77
2022/11/22 04:28:11;;;;;;;18.70;11.23;;;5.10;99.90;;;;;;5019708;28;20100;-77
2022/11/22 04:33:22;;;;;;;20.23;10.25;;;5.10;99.90;;;;;;5016211;28;20556;-78
2022/11/22 04:35:48;;;;;;;20.42;10.70;;;5.20;99.90;;;;;;5015961;28;20453;-77
2022/11/22 04:38:15;;;;;;;22.70;10.90;;;5.20;99.90;;;;;;5032530;28;20413;-78
2022/11/22 04:40:41;;;;;;;20.00;11.55;;;5.20;99.90;;;;;;4998883;28;20069;-78
2022/11/22 04:45:53;;;;;;;20.20;10.82;;;5.20;99.90;;;;;;5015859;28;20099;-77
2022/11/22 04:48:19;;;;;;;18.75;10.13;;;5.20;99.90;;;;;;4996917;28;20037;-77
2022/11/22 04:53:30;;;;;;;16.65;10.32;;;5.30;99.90;;;;;;5028914;28;20111;-78
2022/11/22 04:55:56;;;;;;;18.10;10.50;;;5.30;99.90;;;;;;5014916;28;20516;-78
2022/11/22 04:58:25;;;;;;;23.38;10.43;;;5.30;99.90;;;;;;5015397;28;20042;-77
2022/11/22 05:00:51;;;;;;;18.67;10.18;;;5.30;99.90;;;;;;5019271;28;20033;-78
2022/11/22 05:03:17;;;;;;;23.27;10.80;;;5.30;99.90;;;;;;5000219;28;20400;-78
2022/11/22 05:05:44;;;;;;;17.63;10.85;;;5.30;99.90;;;;;;5016018;28;20121;-78
2022/11/22 05:08:10;;;;;;;21.77;10.68;;;5.30;99.90;;;;;;5015329;28;20053;-78
2022/11/22 05:13:37;;;;;;;22.05;11.10;;;5.30;99.90;;;;;;5014958;28;20454;-78
2022/11/22 05:16:04;;;;;;;25.65;11.32;;;5.30;99.90;;;;;;5015362;28;20048;-77
2022/11/22 05:18:30;;;;;;;20.95;9.73;;;5.40;99.90;;;;;;5021507;28;20037;-77
2022/11/22 05:20:56;;;;;;;24.27;10.75;;;5.40;99.90;;;;;;5020902;28;20037;-78
2022/11/22 05:26:08;;;;;;;22.42;10.88;;;5.40;99.90;;;;;;5014019;28;20084;-78
2022/11/22 05:28:35;;;;;;;23.33;10.52;;;5.40;99.90;;;;;;5002837;28;20045;-78
2022/11/22 05:31:13;;;;;;;22.95;10.50;;;5.40;99.90;;;;;;5024784;28;20091;-78
2022/11/22 05:33:41;;;;;;;19.55;10.05;;;5.40;99.90;;;;;;5025307;28;20040;-78
2022/11/22 05:36:07;;;;;;;20.75;10.05;;;5.50;99.90;;;;;;5026981;28;20037;-78
2022/11/22 05:38:37;;;;;;;22.05;9.75;;;5.50;99.90;;;;;;5030987;28;20037;-77
2022/11/22 05:41:07;;;;;;;14.70;8.68;;;5.50;99.90;;;;;;5014161;28;20502;-78
2022/11/22 05:43:34;;;;;;;20.63;9.25;;;5.50;99.90;;;;;;5030190;28;20041;-77
2022/11/22 05:46:14;;;;;;;19.20;8.82;;;5.50;99.90;;;;;;5014158;28;20107;-78
2022/11/22 05:48:42;;;;;;;20.83;9.13;;;5.50;99.90;;;;;;5036758;28;20045;-77
2022/11/22 05:51:11;;;;;;;18.30;8.50;;;5.50;99.90;;;;;;5017170;28;20132;-78
2022/11/22 05:53:37;;;;;;;22.60;9.13;;;5.50;99.90;;;;;;5021150;28;20042;-77
2022/11/22 05:56:09;;;;;;;18.15;8.63;;;5.40;99.90;;;;;;5013645;28;20045;-78
2022/11/22 05:58:35;;;;;;;19.63;8.63;;;5.40;99.90;;;;;;4987046;28;20091;-79
2022/11/22 06:01:10;;;;;;;18.02;8.48;;;5.40;99.90;;;;;;4999391;28;20037;-78
2022/11/22 06:03:35;;;;;;;18.88;7.95;;;5.40;99.90;;;;;;5011682;28;21748;-79
2022/11/22 06:06:02;;;;;;;19.30;7.97;;;5.40;99.90;;;;;;5020404;28;20250;-78
2022/11/22 06:08:29;;;;;;;21.17;8.40;;;5.30;99.90;;;;;;5010244;28;20060;-78
2022/11/22 06:10:55;;;;;;;21.08;8.32;;;5.30;99.90;;;;;;5014377;28;20080;-78
2022/11/22 06:13:21;;;;;;;20.13;8.18;;;5.30;99.90;;;;;;5011418;28;20041;-78
2022/11/22 06:15:47;;;;;;;22.90;8.02;;;5.20;99.90;;;;;;5011458;28;20040;-79
2022/11/22 06:18:12;;;;;;;18.77;8.18;;;5.30;99.90;;;;;;5005499;28;20539;-79
2022/11/22 06:20:38;;;;;;;20.73;7.82;;;5.30;99.90;;;;;;4993003;28;20041;-78
2022/11/22 06:23:03;;;;;;;19.42;7.55;;;5.20;99.90;;;;;;4994114;28;20077;-79
2022/11/22 06:25:29;;;;;;;19.23;7.85;;;5.20;99.90;;;;;;5010277;28;20049;-79
2022/11/22 06:27:58;;;;;;;22.63;6.88;;;5.20;99.90;;;;;;5009800;28;20048;-79
2022/11/22 06:30:23;;;;;;;17.00;7.53;;;5.20;99.90;;;;;;5006516;28;20440;-79
2022/11/22 06:32:49;;;;;;;18.15;7.68;;;5.20;99.90;;;;;;5016709;28;20124;-78
2022/11/22 06:35:14;;;;;;;18.42;7.07;;;5.10;99.90;;;;;;5013838;28;20460;-78
2022/11/22 06:37:40;;;;;;;16.88;7.53;;;5.10;99.90;;;;;;5023980;28;20041;-78
2022/11/22 06:40:10;;;;;;;21.15;7.10;;;5.10;99.90;;;;;;5016610;28;20040;-79
2022/11/22 06:42:36;;;;;;;18.65;7.63;;;5.10;99.90;;;;;;5011327;28;20038;-79
2022/11/22 06:45:02;;;;;;;20.35;7.22;;;5.10;99.90;;;;;;5014941;28;20095;-79
2022/11/22 06:47:27;;;;;;;16.58;6.82;;;5.00;99.90;;;;;;4994927;28;20041;-79
2022/11/22 06:49:53;;;;;;;17.60;6.68;;;5.00;99.90;;;;;;5002910;28;20042;-79
2022/11/22 06:52:19;;;;;;;21.30;7.18;;;5.00;99.90;;;;;;5008207;28;20522;-80
2022/11/22 06:54:44;;;;;;;14.15;6.07;;;5.00;99.90;;;;;;5011167;28;20053;-79
2022/11/22 06:57:13;;;;;;;16.10;6.43;;;5.00;99.90;;;;;;5007480;28;20069;-79
2022/11/22 06:59:39;;;;;;;20.65;6.85;;;5.00;99.90;;;;;;4991474;28;20041;-79
2022/11/22 07:02:05;;;;;;;19.67;6.25;;;5.00;99.90;;;;;;5015982;28;20406;-79
2022/11/22 07:04:30;;;;;;;20.05;6.32;;;5.00;99.90;;;;;;5021814;28;20040;-79
2022/11/22 07:06:56;;;;;;;16.00;5.53;;;5.00;99.90;;;;;;5015623;28;20386;-79
2022/11/22 07:09:21;;;;;;;21.33;6.25;;;5.00;99.90;;;;;;5032142;28;20498;-79
2022/11/22 07:11:47;;;;;;;19.63;5.45;;;5.00;99.90;;;;;;5015028;28;20551;-79
2022/11/22 07:14:12;;;;;;;20.35;5.82;;;4.90;99.90;;;;;;5011733;28;20037;-79
2022/11/22 07:16:38;;;;;;;15.00;5.10;;;4.90;99.90;;;;;;5008819;28;20038;-79
2022/11/22 07:19:05;;;;;;;14.10;4.75;;;4.90;99.90;;;;;;5019266;28;20056;-78
2022/11/22 07:21:31;;;;;;;16.77;5.00;;;4.90;99.90;;;;;;4998984;28;20037;-79
2022/11/22 07:23:57;;;;;;;27.60;5.97;;;4.90;99.90;;;;;;5014351;28;20505;-79
2022/11/22 07:26:24;;;;;;;17.23;4.60;;;4.90;99.90;;;;;;5013681;28;20134;-80
2022/11/22 07:28:50;;;;;;;15.85;4.85;;;4.90;99.90;;;;;;4994588;28;20042;-80
2022/11/22 07:31:17;;;;;;;18.45;4.55;;;4.90;99.90;;;;;;5007780;28;20392;-80
2022/11/22 07:33:43;;;;;;;20.42;4.50;;;4.90;99.90;;;;;;5002341;28;20107;-80
2022/11/22 07:36:18;;;;;;;18.27;4.22;;;4.90;99.90;;;;;;5002069;28;20110;-80
2022/11/22 07:38:45;;;;;;;16.10;4.20;;;4.90;99.90;;;;;;5002305;28;20069;-80
2022/11/22 07:41:11;;;;;;;17.25;4.38;;;4.80;99.90;;;;;;5021972;28;20064;-80
2022/11/22 07:43:37;;;;;;;15.57;4.18;;;4.90;99.90;;;;;;5016436;28;20072;-79
2022/11/22 07:46:05;;;;;;;15.20;4.32;;;4.90;99.90;;;;;;5012202;28;20033;-80
2022/11/22 07:48:30;;;;;;;14.30;4.00;;;4.90;99.90;;;;;;5031233;28;20421;-77
2022/11/22 07:50:56;;;;;;;19.17;4.38;;;4.90;99.90;;;;;;5028452;28;20041;-78
2022/11/22 07:53:22;;;;;;;17.95;4.50;;;4.80;99.90;;;;;;5028221;28;20417;-78
2022/11/22 07:55:47;;;;;;;16.77;3.97;;;4.80;99.90;;;;;;5022147;28;20052;-79
2022/11/22 07:58:13;;;;;;;17.58;3.70;;;4.80;99.90;;;;;;5003031;28;20093;-79
2022/11/22 08:00:39;;;;;;;13.50;3.78;;;4.80;99.90;;;;;;5003984;28;20057;-80
2022/11/22 08:03:07;;;;;;;21.88;4.00;;;4.80;99.90;;;;;;5029429;28;20065;-80
2022/11/22 08:05:33;;;;;;;16.13;3.80;;;4.80;99.90;;;;;;4996180;28;20034;-79
2022/11/22 08:07:58;;;;;;;18.17;3.78;;;4.80;99.90;;;;;;5012951;28;20416;-79
2022/11/22 08:10:24;;;;;;;14.40;3.83;;;4.80;99.90;;;;;;5006525;28;20434;-80
2022/11/22 08:12:49;;;;;;;19.48;3.40;;;4.80;99.90;;;;;;5000449;28;20107;-79
2022/11/22 08:15:16;;;;;;;15.38;4.00;;;4.80;99.90;;;;;;5008532;28;20122;-79
2022/11/22 08:17:41;;;;;;;14.38;3.58;;;4.80;99.90;;;;;;5005415;28;20042;-78
2022/11/22 08:20:08;;;;;;;15.00;3.38;;;4.80;99.90;;;;;;5028564;28;20448;-79
2022/11/22 08:22:35;;;;;;;17.77;3.72;;;4.90;99.90;;;;;;5017350;28;20083;-79
2022/11/22 08:25:00;;;;;;;18.50;3.25;;;4.90;99.90;;;;;;5007704;28;20132;-79
2022/11/22 08:27:26;;;;;;;21.55;3.50;;;4.90;99.90;;;;;;4998948;28;20497;-77
2022/11/22 08:29:51;;;;;;;14.88;3.50;;;4.90;99.90;;;;;;5016377;28;20049;-81
2022/11/22 08:32:17;;;;;;;13.57;3.10;;;5.00;99.90;;;;;;5014433;28;20041;-80
2022/11/22 08:34:42;;;;;;;22.27;3.85;;;5.00;99.90;;;;;;5007155;28;20037;-77
2022/11/22 08:37:08;;;;;;;15.30;3.40;;;5.00;99.90;;;;;;5007021;28;20049;-78
2022/11/22 08:39:33;;;;;;;10.88;3.15;;;5.00;99.90;;;;;;5010952;28;20038;-79
2022/11/22 08:41:59;;;;;;;11.73;3.50;;;5.00;99.90;;;;;;5019945;28;20494;-78
2022/11/22 08:44:25;;;;;;;14.40;3.40;;;5.10;99.90;;;;;;5015878;28;20044;-78
2022/11/22 08:46:50;;;;;;;13.65;3.20;;;5.10;99.90;;;;;;5015373;28;20075;-76
2022/11/22 08:49:16;;;;;;;16.75;3.67;;;5.20;99.90;;;;;;5014521;28;20155;-79
2022/11/22 08:51:43;;;;;;;15.10;3.10;;;5.20;99.90;;;;;;5003617;28;20049;-80
2022/11/22 08:54:13;;;;;;;12.05;3.00;;;5.30;99.90;;;;;;5015612;28;20465;-79
2022/11/22 08:56:40;;;;;;;17.65;3.58;;;5.30;99.90;;;;;;5012561;28;20049;-79
2022/11/22 08:59:05;;;;;;;14.80;3.33;;;5.40;99.90;;;;;;5029435;28;20516;-80
2022/11/22 09:01:31;;;;;;;13.80;3.53;;;5.40;99.90;;;;;;5014782;28;20054;-78
2022/11/22 09:03:57;;;;;;;17.95;3.80;;;5.40;99.90;;;;;;5014910;28;20083;-78
2022/11/22 09:06:22;;;;;;;15.38;3.28;;;5.50;99.90;;;;;;5017387;28;20405;-78
2022/11/22 09:08:48;;;;;;;14.25;3.10;;;5.50;99.90;;;;;;5019740;28;20068;-79
2022/11/22 09:11:16;;;;;;;13.90;3.38;;;5.60;99.90;;;;;;5022532;28;20033;-79
2022/11/22 09:13:43;;;;;;;13.23;3.50;;;5.60;99.90;;;;;;5037598;28;20038;-79
2022/11/22 09:16:14;;;;;;;10.10;3.08;;;5.70;99.90;;;;;;4994102;28;20064;-79
2022/11/22 09:18:41;;;;;;;14.43;3.25;;;5.70;99.90;;;;;;5007308;28;20164;-79
2022/11/22 09:21:09;;;;;;;13.40;3.30;;;5.70;99.90;;;;;;5022918;28;20069;-79
2022/11/22 09:23:34;;;;;;;11.45;3.22;;;5.70;99.90;;;;;;5039255;28;20053;-78
2022/11/22 09:26:02;;;;;;;11.20;3.03;;;5.70;99.90;;;;;;5020045;28;20149;-79
2022/11/22 09:28:28;;;;;;;16.60;3.38;;;5.80;99.90;;;;;;5015682;28;20053;-79
2022/11/22 09:31:06;;;;;;;26.08;3.53;;;5.80;99.90;;;;;;5016295;28;20147;-82
2022/11/22 09:33:37;;;;;;;17.45;3.70;;;5.90;99.90;;;;;;5017017;28;20048;-81
2022/11/22 09:36:08;;;;;;;15.27;3.40;;;6.00;99.90;;;;;;5020042;28;20512;-80
2022/11/22 09:38:35;;;;;;;16.05;3.42;;;6.00;99.90;;;;;;5028238;28;20170;-82
2022/11/22 09:41:15;;;;;;;14.15;3.05;;;6.00;99.90;;;;;;5018952;28;20029;-80
2022/11/22 09:43:48;;;;;;;13.00;3.35;;;6.00;99.90;;;;;;5010457;28;20041;-80
2022/11/22 09:46:21;;;;;;;16.13;3.60;;;6.10;99.90;;;;;;5016515;28;20060;-79
2022/11/22 09:49:00;;;;;;;14.73;3.55;;;6.10;99.90;;;;;;5015687;28;20037;-80
2022/11/22 09:51:38;;;;;;;16.77;3.50;;;6.10;99.90;;;;;;5001400;28;20041;-80
2022/11/22 09:54:11;;;;;;;12.48;3.45;;;6.10;99.90;;;;;;5019222;28;20064;-80
2022/11/22 09:56:38;;;;;;;10.52;3.15;;;6.10;99.90;;;;;;5033942;28;20094;-81
2022/11/22 09:59:15;;;;;;;13.55;3.15;;;6.20;99.90;;;;;;5019626;28;20042;-82
2022/11/22 10:01:45;;;;;;;13.00;3.13;;;6.20;99.90;;;;;;5038744;28;20033;-82
2022/11/22 10:04:36;;;;;;;19.02;3.10;;;6.20;99.90;;;;;;5027242;28;20493;-82
2022/11/22 10:07:09;;;;;;;12.50;3.50;;;6.20;99.90;;;;;;5024610;28;20045;-82
2022/11/22 10:09:40;;;;;;;16.45;3.08;;;6.20;99.90;;;;;;5042358;28;20037;-83
2022/11/22 10:12:21;;;;;;;13.70;3.13;;;6.20;99.90;;;;;;5010316;28;20041;-82
2022/11/22 10:15:16;;;;;;;13.23;3.10;;;6.20;99.90;;;;;;5022097;28;20038;-80
2022/11/22 10:18:08;;;;;;;12.60;3.45;;;6.30;99.90;;;;;;5019796;28;20049;-82
2022/11/22 10:20:38;;;;;;;12.48;3.33;;;6.30;99.90;;;;;;5007223;28;20451;-81
2022/11/22 10:23:19;;;;;;;15.13;3.17;;;6.30;99.90;;;;;;5002819;28;20140;-80
2022/11/22 10:25:49;;;;;;;13.00;2.72;;;6.30;99.90;;;;;;5008018;28;20390;-81
2022/11/22 10:28:31;;;;;;;14.68;3.33;;;6.40;99.90;;;;;;5007170;28;20045;-79
2022/11/22 10:31:03;;;;;;;11.48;2.75;;;6.40;99.90;;;;;;5016155;28;20034;-80
2022/11/22 10:33:35;;;;;;;9.67;3.00;;;6.50;99.90;;;;;;5015686;28;20104;-80
2022/11/22 10:36:21;;;;;;;10.68;2.90;;;6.50;99.90;;;;;;5013102;28;20095;-81
2022/11/22 10:38:56;;;;;;;10.25;2.92;;;6.50;99.90;;;;;;5021701;28;20633;-80
2022/11/22 10:41:49;;;;;;;9.65;3.42;;;6.50;99.90;;;;;;5028457;28;20409;-80
2022/11/22 10:44:21;;;;;;;13.93;2.72;;;6.50;99.90;;;;;;5018094;28;20386;-79
2022/11/22 10:46:55;;;;;;;10.57;2.63;;;6.50;99.90;;;;;;5006654;28;20661;-79
2022/11/22 10:50:12;;;;;;;9.93;2.90;;;6.50;99.90;;;;;;5015881;28;20038;-79
2022/11/22 10:53:03;;;;;;;11.68;2.88;;;6.50;99.90;;;;;;5009160;28;20045;-79
2022/11/22 10:55:42;;;;;;;9.68;2.65;;;6.50;99.90;;;;;;5011604;28;20041;-79
2022/11/22 10:58:21;;;;;;;10.77;2.58;;;6.60;99.90;;;;;;5015240;28;20235;-79
2022/11/22 11:00:55;;;;;;;11.23;3.20;;;6.60;99.90;;;;;;5020460;28;20040;-79
2022/11/22 11:03:31;;;;;;;11.15;2.35;;;6.70;99.90;;;;;;5005349;28;20151;-80
2022/11/22 11:06:33;;;;;;;7.45;2.42;;;6.80;99.90;;;;;;5025102;28;20067;-79
2022/11/22 11:09:24;;;;;;;9.20;2.70;;;6.80;99.90;;;;;;5012636;28;20084;-79
2022/11/22 11:11:51;;;;;;;9.23;2.38;;;6.80;99.90;;;;;;5011369;28;20086;-79
2022/11/22 11:14:42;;;;;;;8.00;2.60;;;6.80;99.90;;;;;;5018645;28;20037;-79
2022/11/22 11:17:16;;;;;;;8.60;2.10;;;6.90;99.90;;;;;;5021557;28;20574;-80
2022/11/22 11:19:46;;;;;;;10.70;2.05;;;6.90;99.90;;;;;;5022976;28;20069;-79
2022/11/22 11:22:23;;;;;;;8.35;2.55;;;6.90;99.90;;;;;;4997175;28;20038;-79
2022/11/22 11:24:48;;;;;;;7.53;2.05;;;6.90;99.90;;;;;;5011050;28;20048;-83
2022/11/22 11:27:15;;;;;;;10.23;2.60;;;7.00;99.90;;;;;;5015110;28;20091;-78
2022/11/22 11:29:51;;;;;;;12.80;2.75;;;7.00;99.90;;;;;;5017197;28;20030;-77
2022/11/22 11:32:19;;;;;;;12.25;2.88;;;7.00;99.90;;;;;;4999236;28;20151;-79
2022/11/22 11:35:00;;;;;;;8.18;2.47;;;7.10;99.90;;;;;;5019140;28;20049;-78
2022/11/22 11:37:33;;;;;;;8.48;2.50;;;7.10;99.90;;;;;;4997194;28;20121;-78
2022/11/22 11:39:59;;;;;;;11.20;2.08;;;7.10;99.90;;;;;;5014977;28;20048;-79
2022/11/22 11:42:30;;;;;;;7.65;2.25;;;7.10;99.90;;;;;;5016042;28;20122;-78
2022/11/22 11:45:14;;;;;;;13.48;2.30;;;7.10;99.90;;;;;;5015759;28;20041;-79
2022/11/22 11:47:40;;;;;;;12.63;2.42;;;7.10;99.90;;;;;;5016053;28;20501;-82
2022/11/22 11:50:20;;;;;;;14.30;2.42;;;7.10;99.90;;;;;;5020373;28;20049;-79
2022/11/22 11:53:03;;;;;;;6.82;2.00;;;7.10;99.90;;;;;;5011488;28;20033;-77
2022/11/22 11:55:36;;;;;;;10.15;2.58;;;7.10;99.90;;;;;;5008850;28;20661;-79
2022/11/22 11:58:21;;;;;;;8.00;1.98;;;7.10;99.90;;;;;;5014624;28;20720;-79
2022/11/22 12:00:47;;;;;;;8.85;3.00;;;7.10;99.90;;;;;;5019973;28;20046;-78
2022/11/22 12:03:17;;;;;;;7.32;2.20;;;7.10;99.90;;;;;;5007556;28;20051;-78
2022/11/22 12:05:43;;;;;;;7.28;1.85;;;7.10;99.90;;;;;;5007956;28;20125;-77
2022/11/22 12:08:29;;;;;;;9.85;2.28;;;7.10;99.90;;;;;;5026354;28;20124;-78
2022/11/22 12:11:07;;;;;;;11.13;2.45;;;7.10;99.90;;;;;;5013414;28;20652;-79
2022/11/22 12:13:41;;;;;;;7.10;2.13;;;7.10;99.90;;;;;;5020387;28;20128;-78
2022/11/22 12:16:20;;;;;;;9.88;2.30;;;7.10;99.90;;;;;;5009781;28;20045;-78
2022/11/22 12:19:17;;;;;;;8.23;2.05;;;7.10;99.90;;;;;;5018212;28;20154;-82
2022/11/22 12:21:56;;;;;;;7.13;1.95;;;7.00;99.90;;;;;;4995641;28;20276;-78
2022/11/22 12:24:31;;;;;;;9.57;2.28;;;6.70;99.90;;;;;;4990557;28;20129;-78
2022/11/22 12:26:57;;;;;;;10.43;2.70;;;7.00;99.90;;;;;;5009295;28;20124;-81
2022/11/22 12:29:23;;;;;;;7.20;2.13;;;7.00;99.90;;;;;;4994054;28;20137;-77
2022/11/22 12:32:06;;;;;;;9.55;2.30;;;7.00;99.90;;;;;;5016249;28;20048;-76
2022/11/22 12:34:42;;;;;;;9.57;2.05;;;7.00;99.90;;;;;;5004260;28;20057;-77
2022/11/22 12:37:22;;;;;;;5.30;1.75;;;7.00;99.90;;;;;;5025729;28;20117;-79
2022/11/22 12:39:51;;;;;;;6.45;1.90;;;7.00;99.90;;;;;;4998269;28;20034;-78
2022/11/22 12:42:20;;;;;;;9.93;1.90;;;7.00;99.90;;;;;;5011437;28;20041;-78
2022/11/22 12:44:55;;;;;;;3.88;1.45;;;7.00;99.90;;;;;;5035450;28;20073;-79
2022/11/22 12:47:40;;;;;;;9.32;2.28;;;6.90;99.90;;;;;;5020208;28;20045;-78
2022/11/22 12:50:18;;;;;;;5.45;2.00;;;6.90;99.90;;;;;;5034405;28;20042;-78
2022/11/22 12:52:51;;;;;;;6.95;1.80;;;6.90;99.90;;;;;;5029786;28;20097;-78
2022/11/22 12:55:24;;;;;;;9.05;2.00;;;7.20;99.90;;;;;;5019163;28;20049;-78
2022/11/22 12:58:02;;;;;;;;;;;6.90;99.90;;;;;;5017492;28;20037;-81
2022/11/22 13:00:33;;;;;;;6.60;1.98;;;6.90;99.90;;;;;;5023746;28;19928;-78
2022/11/22 13:03:02;;;;;;;7.90;1.75;;;6.90;99.90;;;;;;5007509;28;20124;-77
2022/11/22 13:05:42;;;;;;;6.28;1.80;;;6.90;99.90;;;;;;5015339;28;20107;-80
2022/11/22 13:08:23;;;;;;;8.40;2.45;;;6.90;99.90;;;;;;4997156;28;20037;-77
2022/11/22 13:11:14;;;;;;;5.30;1.63;;;6.90;99.90;;;;;;5015143;28;20088;-78
2022/11/22 13:13:50;;;;;;;9.68;2.20;;;6.90;99.90;;;;;;5028444;28;20430;-78
2022/11/22 13:16:16;;;;;;;5.95;1.63;;;6.90;99.90;;;;;;5019660;28;20129;-80